Time;durP1;ratioP1;P1;durP2;ratioP2;P2;SDS_P1;SDS_P2;PMS_P1;PMS_P2;Temp;Humidity;BMP_temperature;BMP_pressure;BME280_temperature;BME280_humidity;BME280_pressure;Samples;Min_cycle;Max_cycle;Signal;HPM_P1;HPM_P2
2023/12/28 00:01:19;;;;;;;27.30;11.57;;;3.60;99.90;;;;;;6141692;23;20018;-78
2023/12/28 00:03:47;;;;;;;27.75;12.20;;;3.10;99.90;;;;;;6140244;23;20009;-77
2023/12/28 00:06:17;;;;;;;28.85;11.98;;;3.80;99.90;;;;;;6166717;23;20014;-78
2023/12/28 00:09:09;;;;;;;29.52;13.07;;;3.50;99.90;;;;;;5111396;27;20372;-78
2023/12/28 00:11:40;;;;;;;25.83;12.05;;;3.70;99.90;;;;;;5104674;28;20044;-78
2023/12/28 00:14:09;;;;;;;32.17;12.88;;;3.50;99.90;;;;;;5103479;28;21786;-78
2023/12/28 00:16:39;;;;;;;25.08;10.52;;;2.90;99.90;;;;;;5119897;27;20824;-77
2023/12/28 00:19:08;;;;;;;30.88;12.73;;;3.50;99.90;;;;;;5101985;28;20255;-78
2023/12/28 00:21:37;;;;;;;28.80;11.65;;;3.50;99.90;;;;;;5101274;28;20111;-78
2023/12/28 00:24:08;;;;;;;28.20;11.88;;;4.00;99.90;;;;;;5115088;27;20048;-78
2023/12/28 00:26:37;;;;;;;30.25;12.13;;;3.50;99.90;;;;;;5105339;28;20052;-78
2023/12/28 00:29:07;;;;;;;30.10;11.55;;;4.70;99.90;;;;;;5108330;28;20538;-78
2023/12/28 00:31:36;;;;;;;23.80;10.85;;;3.90;99.90;;;;;;5112342;28;20078;-78
2023/12/28 00:34:05;;;;;;;24.70;12.02;;;4.70;99.90;;;;;;5111565;28;20063;-78
2023/12/28 00:36:34;;;;;;;25.92;11.57;;;3.50;99.90;;;;;;5101045;28;20055;-78
2023/12/28 00:39:03;;;;;;;29.35;11.65;;;3.20;99.90;;;;;;5101609;28;20048;-78
2023/12/28 00:41:33;;;;;;;29.55;11.48;;;3.20;99.90;;;;;;5104287;28;20105;-78
2023/12/28 00:44:02;;;;;;;29.30;11.90;;;3.30;99.90;;;;;;5121909;28;20188;-78
2023/12/28 00:46:35;;;;;;;25.88;10.38;;;3.30;99.90;;;;;;5101707;28;20115;-78
2023/12/28 00:49:05;;;;;;;27.50;11.30;;;4.30;99.90;;;;;;5110312;28;22994;-78
2023/12/28 00:51:36;;;;;;;24.60;11.18;;;3.40;99.90;;;;;;5110083;28;20088;-78
2023/12/28 00:54:05;;;;;;;21.70;9.70;;;3.60;99.90;;;;;;5104336;28;20069;-78
2023/12/28 00:56:36;;;;;;;27.83;11.52;;;3.40;99.90;;;;;;5119034;27;20094;-78
2023/12/28 00:59:05;;;;;;;26.13;11.13;;;3.30;99.90;;;;;;5101897;28;20073;-78
2023/12/28 01:01:34;;;;;;;24.92;10.27;;;2.50;99.90;;;;;;5119143;27;20811;-78
2023/12/28 01:04:03;;;;;;;27.55;11.50;;;3.50;99.90;;;;;;5102300;27;20039;-78
2023/12/28 01:06:33;;;;;;;26.05;11.95;;;3.30;99.90;;;;;;5129043;27;20045;-78
2023/12/28 01:09:03;;;;;;;28.38;11.85;;;2.80;99.90;;;;;;5087378;28;20054;-77
2023/12/28 01:11:31;;;;;;;26.88;12.35;;;3.20;99.90;;;;;;5070699;28;20052;-78
2023/12/28 01:14:02;;;;;;;30.35;12.18;;;3.20;99.90;;;;;;5066436;28;20141;-78
2023/12/28 01:16:32;;;;;;;30.10;13.65;;;3.20;99.90;;;;;;5070927;28;20047;-78
2023/12/28 01:19:01;;;;;;;32.05;12.68;;;3.20;99.90;;;;;;5064688;28;20045;-78
2023/12/28 01:21:31;;;;;;;32.25;12.75;;;3.60;99.90;;;;;;5073635;28;20098;-78
2023/12/28 01:23:59;;;;;;;31.10;12.82;;;3.20;99.90;;;;;;5057238;28;20052;-78
2023/12/28 01:26:28;;;;;;;32.88;15.48;;;3.90;99.90;;;;;;5057480;28;20048;-78
2023/12/28 01:28:58;;;;;;;35.08;13.43;;;3.10;99.90;;;;;;5056078;28;20055;-78
2023/12/28 01:31:28;;;;;;;33.00;13.70;;;3.10;99.90;;;;;;5058787;28;20039;-78
2023/12/28 01:33:57;;;;;;;32.92;13.63;;;3.10;99.90;;;;;;5058844;28;20155;-78
2023/12/28 01:36:29;;;;;;;30.73;13.10;;;3.20;99.90;;;;;;5072980;28;20135;-78
2023/12/28 01:38:59;;;;;;;30.42;12.55;;;3.10;99.90;;;;;;5058682;28;20139;-78
2023/12/28 01:41:28;;;;;;;27.15;11.68;;;3.20;99.90;;;;;;5057368;28;20122;-78
2023/12/28 01:44:00;;;;;;;27.63;12.07;;;3.00;99.90;;;;;;5058519;28;20607;-78
2023/12/28 01:46:31;;;;;;;26.08;12.77;;;3.10;99.90;;;;;;5054507;28;20053;-77
2023/12/28 01:49:01;;;;;;;28.40;11.80;;;3.00;99.90;;;;;;5058970;28;20049;-78
2023/12/28 01:51:30;;;;;;;26.05;12.23;;;3.00;99.90;;;;;;5057172;28;20060;-77
2023/12/28 01:53:59;;;;;;;29.08;12.70;;;3.40;99.90;;;;;;5073115;28;20044;-78
2023/12/28 01:56:28;;;;;;;26.20;11.93;;;3.00;99.90;;;;;;5058864;28;20112;-77
2023/12/28 01:58:57;;;;;;;26.00;11.52;;;2.40;99.90;;;;;;5073402;28;22816;-78
2023/12/28 02:01:27;;;;;;;22.45;11.18;;;3.00;99.90;;;;;;5056544;28;20057;-78
2023/12/28 02:03:59;;;;;;;25.48;11.43;;;3.00;99.90;;;;;;5085005;28;21960;-78
2023/12/28 02:06:28;;;;;;;24.65;11.95;;;2.90;99.90;;;;;;5064765;28;20063;-78
2023/12/28 02:08:56;;;;;;;21.92;10.35;;;3.00;99.90;;;;;;5087243;28;20066;-78
2023/12/28 02:11:26;;;;;;;25.15;10.82;;;2.90;99.90;;;;;;5087271;28;20048;-78
2023/12/28 02:13:55;;;;;;;24.58;10.68;;;2.90;99.90;;;;;;5084727;28;20048;-78
2023/12/28 02:16:33;;;;;;;29.10;12.02;;;2.90;99.90;;;;;;5083850;28;20047;-78
2023/12/28 02:19:17;;;;;;;26.10;10.68;;;2.90;99.90;;;;;;5104887;28;20153;-78
2023/12/28 02:21:51;;;;;;;24.23;11.00;;;2.90;99.90;;;;;;5094030;28;20093;-78
2023/12/28 02:24:19;;;;;;;;;;;2.80;99.90;;;;;;5105747;28;20044;-77
2023/12/28 02:26:49;;;;;;;24.27;11.05;;;2.80;99.90;;;;;;5086421;28;19928;-77
2023/12/28 02:29:19;;;;;;;28.65;11.55;;;2.80;99.90;;;;;;5085676;28;20051;-78
2023/12/28 02:32:00;;;;;;;25.42;10.73;;;2.90;99.90;;;;;;5084697;28;20147;-78
2023/12/28 02:34:35;;;;;;;25.40;11.60;;;1.70;99.90;;;;;;5084953;27;20079;-78
2023/12/28 02:37:05;;;;;;;19.80;10.02;;;3.60;99.90;;;;;;5095827;28;20150;-78
2023/12/28 02:39:35;;;;;;;23.42;10.85;;;2.70;99.90;;;;;;5085220;28;20153;-77
2023/12/28 02:42:09;;;;;;;19.55;9.85;;;3.00;99.90;;;;;;5093296;28;20099;-78
2023/12/28 02:44:39;;;;;;;23.42;9.50;;;2.70;99.90;;;;;;5085571;28;22886;-78
2023/12/28 02:47:09;;;;;;;23.00;10.43;;;2.90;99.90;;;;;;5084860;28;20032;-78
2023/12/28 02:49:38;;;;;;;22.25;9.63;;;2.70;99.90;;;;;;5102128;27;20044;-78
2023/12/28 02:52:07;;;;;;;24.15;11.23;;;3.80;99.90;;;;;;5085224;28;20078;-78
2023/12/28 02:54:36;;;;;;;24.13;11.18;;;2.70;99.90;;;;;;5086411;28;20156;-78
2023/12/28 02:57:07;;;;;;;25.05;11.32;;;2.60;99.90;;;;;;5089174;28;20047;-78
2023/12/28 02:59:36;;;;;;;25.77;11.20;;;2.70;99.90;;;;;;5086203;28;20048;-78
2023/12/28 03:02:05;;;;;;;24.05;10.50;;;3.20;99.90;;;;;;5087661;28;20040;-78
2023/12/28 03:04:33;;;;;;;27.13;10.85;;;2.60;99.90;;;;;;5115941;27;20052;-78
2023/12/28 03:07:02;;;;;;;26.85;11.27;;;2.60;99.90;;;;;;5086083;28;20052;-78
2023/12/28 03:09:31;;;;;;;25.58;11.85;;;2.60;99.90;;;;;;5084751;28;20170;-77
2023/12/28 03:12:00;;;;;;;26.52;11.10;;;2.60;99.90;;;;;;5084898;28;20059;-77
2023/12/28 03:14:31;;;;;;;27.30;11.10;;;3.40;99.90;;;;;;5094278;27;20475;-78
2023/12/28 03:16:59;;;;;;;25.30;10.07;;;2.60;99.90;;;;;;5084075;28;20031;-78
2023/12/28 03:19:30;;;;;;;22.02;11.00;;;2.60;99.90;;;;;;5084259;28;21931;-78
2023/12/28 03:21:58;;;;;;;26.73;10.98;;;2.70;99.90;;;;;;5102370;27;20906;-78
2023/12/28 03:24:28;;;;;;;24.75;11.05;;;2.50;99.90;;;;;;5086507;28;20087;-77
2023/12/28 03:26:57;;;;;;;25.13;10.68;;;2.50;99.90;;;;;;5086146;28;20746;-78
2023/12/28 03:29:27;;;;;;;19.80;9.90;;;2.50;99.90;;;;;;5086314;28;20052;-78
2023/12/28 03:31:57;;;;;;;23.13;9.70;;;2.50;99.90;;;;;;5089916;28;20059;-78
2023/12/28 03:34:29;;;;;;;24.88;10.35;;;2.50;99.90;;;;;;5098730;28;20063;-77
2023/12/28 03:36:58;;;;;;;27.77;10.13;;;2.60;99.90;;;;;;5101881;27;22979;-78
2023/12/28 03:39:27;;;;;;;22.45;9.38;;;2.80;99.90;;;;;;5085137;28;22043;-78
2023/12/28 03:41:56;;;;;;;20.05;9.35;;;2.40;99.90;;;;;;5109625;27;20055;-79
2023/12/28 03:44:25;;;;;;;19.50;9.23;;;3.40;99.90;;;;;;5090974;28;20044;-78
2023/12/28 03:46:54;;;;;;;20.35;8.75;;;2.40;99.90;;;;;;5084198;28;20051;-78
2023/12/28 03:49:24;;;;;;;22.60;8.90;;;2.00;99.90;;;;;;5087208;28;20130;-78
2023/12/28 03:51:55;;;;;;;23.50;10.18;;;2.40;99.90;;;;;;5116702;27;20073;-78
2023/12/28 03:54:24;;;;;;;21.77;10.43;;;2.40;99.90;;;;;;5101572;27;20056;-78
2023/12/28 03:56:54;;;;;;;20.52;9.85;;;2.40;99.90;;;;;;5082758;28;20048;-78
2023/12/28 03:59:22;;;;;;;26.35;11.20;;;2.30;99.90;;;;;;5086808;28;20035;-78
2023/12/28 04:01:51;;;;;;;20.42;9.45;;;2.60;99.90;;;;;;5085281;28;20056;-78
2023/12/28 04:04:20;;;;;;;25.88;9.93;;;2.30;99.90;;;;;;5092299;28;20063;-78
2023/12/28 04:06:51;;;;;;;21.13;9.77;;;1.80;99.90;;;;;;5086504;28;22200;-78
2023/12/28 04:09:20;;;;;;;22.85;9.90;;;2.30;99.90;;;;;;5089114;28;20044;-78
2023/12/28 04:11:52;;;;;;;21.08;9.45;;;2.30;99.90;;;;;;5087417;28;20039;-78
2023/12/28 04:14:21;;;;;;;21.00;9.25;;;2.30;99.90;;;;;;5103910;27;20116;-78
2023/12/28 04:16:50;;;;;;;18.95;8.60;;;2.50;99.90;;;;;;5085500;28;20149;-78
2023/12/28 04:19:19;;;;;;;19.67;8.40;;;2.30;99.90;;;;;;5087652;28;20034;-78
2023/12/28 04:21:49;;;;;;;19.83;8.82;;;2.40;99.90;;;;;;5087489;28;20032;-78
2023/12/28 04:24:19;;;;;;;18.60;7.35;;;2.30;99.90;;;;;;5085689;28;20107;-77
2023/12/28 04:26:47;;;;;;;18.05;7.97;;;2.40;99.90;;;;;;5089064;28;20141;-78
2023/12/28 04:29:16;;;;;;;18.40;7.93;;;2.40;99.90;;;;;;5092244;28;21937;-78
2023/12/28 04:31:45;;;;;;;19.42;8.45;;;2.30;99.90;;;;;;5100083;28;20158;-78
2023/12/28 04:34:14;;;;;;;22.58;8.93;;;2.30;99.90;;;;;;5085514;28;20042;-78
2023/12/28 04:36:44;;;;;;;20.02;8.50;;;2.30;99.90;;;;;;5084164;28;20051;-78
2023/12/28 04:39:14;;;;;;;25.58;10.07;;;2.30;99.90;;;;;;5115440;28;20051;-78
2023/12/28 04:41:44;;;;;;;21.08;8.40;;;2.10;99.90;;;;;;5106476;28;20044;-78
2023/12/28 04:44:13;;;;;;;17.55;7.70;;;3.20;99.90;;;;;;5084806;28;20178;-78
2023/12/28 04:46:44;;;;;;;19.27;7.95;;;2.10;99.90;;;;;;5092793;28;20047;-78
2023/12/28 04:49:13;;;;;;;17.98;8.15;;;2.30;99.90;;;;;;5084991;28;20047;-78
2023/12/28 04:51:44;;;;;;;17.67;7.60;;;2.30;99.90;;;;;;5088908;28;20048;-78
2023/12/28 04:54:13;;;;;;;21.23;8.38;;;2.30;99.90;;;;;;5103090;28;22246;-78
2023/12/28 04:56:45;;;;;;;16.95;7.43;;;2.30;99.90;;;;;;5097832;28;20123;-78
2023/12/28 04:59:14;;;;;;;17.67;7.25;;;2.30;99.90;;;;;;5087925;28;20056;-78
2023/12/28 05:01:43;;;;;;;17.02;7.88;;;2.20;99.90;;;;;;5104829;27;20054;-78
2023/12/28 05:04:12;;;;;;;20.25;8.40;;;1.40;99.90;;;;;;5096958;28;20052;-78
2023/12/28 05:06:45;;;;;;;16.48;7.57;;;2.20;99.90;;;;;;5105164;28;20055;-78
2023/12/28 05:09:14;;;;;;;21.70;7.97;;;2.10;99.90;;;;;;5087553;28;20050;-78
2023/12/28 05:11:44;;;;;;;19.52;6.97;;;2.10;99.90;;;;;;5105254;27;20044;-78
2023/12/28 05:14:14;;;;;;;17.90;7.13;;;2.10;99.90;;;;;;5097183;28;20208;-77
2023/12/28 05:16:42;;;;;;;16.38;7.00;;;2.10;99.90;;;;;;5086467;28;20039;-78
2023/12/28 05:19:11;;;;;;;19.75;7.75;;;1.60;99.90;;;;;;5104840;28;20069;-78
2023/12/28 05:21:40;;;;;;;17.50;7.00;;;2.10;99.90;;;;;;5090126;28;20715;-78
2023/12/28 05:24:09;;;;;;;22.70;8.77;;;2.10;99.90;;;;;;5114522;27;20040;-78
2023/12/28 05:26:37;;;;;;;16.70;6.95;;;2.10;99.90;;;;;;5087396;28;20055;-78
2023/12/28 05:29:07;;;;;;;22.02;8.23;;;2.20;99.90;;;;;;5087326;28;20103;-77
2023/12/28 05:31:36;;;;;;;18.83;8.55;;;2.00;99.90;;;;;;5102774;27;20071;-78
2023/12/28 05:34:06;;;;;;;20.95;7.57;;;2.60;99.90;;;;;;5094782;28;20124;-78
2023/12/28 05:36:34;;;;;;;20.35;9.15;;;1.80;99.90;;;;;;5088514;28;20814;-78
2023/12/28 05:39:04;;;;;;;23.08;11.32;;;2.00;99.90;;;;;;5084638;28;20172;-78
2023/12/28 05:41:32;;;;;;;27.05;10.88;;;1.50;99.90;;;;;;5091655;28;20040;-78
2023/12/28 05:44:01;;;;;;;28.42;13.38;;;2.00;99.90;;;;;;5102606;28;20071;-78
2023/12/28 05:46:31;;;;;;;27.33;12.65;;;1.90;99.90;;;;;;5084172;28;20055;-78
2023/12/28 05:49:00;;;;;;;26.05;12.20;;;1.90;99.90;;;;;;5108045;27;20174;-78
2023/12/28 05:51:28;;;;;;;28.90;12.85;;;1.90;99.90;;;;;;5083121;28;20056;-78
2023/12/28 05:53:57;;;;;;;25.52;11.75;;;1.90;99.90;;;;;;5092374;28;20058;-78
2023/12/28 05:56:26;;;;;;;23.20;10.98;;;1.90;99.90;;;;;;5085722;28;20059;-78
2023/12/28 05:58:54;;;;;;;26.35;11.20;;;1.90;99.90;;;;;;5084386;28;20132;-77
2023/12/28 06:01:23;;;;;;;21.33;10.27;;;1.90;99.90;;;;;;5083601;28;20144;-78
2023/12/28 06:03:53;;;;;;;23.60;9.63;;;1.90;99.90;;;;;;5087506;28;20075;-78
2023/12/28 06:06:21;;;;;;;20.30;10.25;;;1.90;99.90;;;;;;5109081;27;20125;-78
2023/12/28 06:08:51;;;;;;;25.42;11.18;;;1.90;99.90;;;;;;5082356;28;20704;-78
2023/12/28 06:11:19;;;;;;;26.50;10.38;;;1.90;99.90;;;;;;5095787;28;20036;-78
2023/12/28 06:13:48;;;;;;;27.92;11.93;;;1.90;99.90;;;;;;5081416;28;20908;-78
2023/12/28 06:16:16;;;;;;;26.75;11.20;;;1.80;99.90;;;;;;5078931;28;20044;-78
2023/12/28 06:18:44;;;;;;;32.13;12.25;;;1.80;99.90;;;;;;5099584;28;20052;-78
2023/12/28 06:21:15;;;;;;;30.88;11.65;;;1.80;99.90;;;;;;5095593;28;20038;-78
2023/12/28 06:23:43;;;;;;;29.60;12.30;;;1.80;99.90;;;;;;5082308;28;20044;-78
2023/12/28 06:26:12;;;;;;;29.95;13.07;;;1.80;99.90;;;;;;5081768;28;20044;-78
2023/12/28 06:28:40;;;;;;;34.33;13.65;;;1.80;99.90;;;;;;5081644;28;20047;-77
2023/12/28 06:31:09;;;;;;;43.58;16.45;;;1.80;99.90;;;;;;5079801;28;20048;-78
2023/12/28 06:33:38;;;;;;;38.05;16.30;;;1.70;99.90;;;;;;5081159;28;20075;-77
2023/12/28 06:36:08;;;;;;;39.20;16.67;;;1.80;99.90;;;;;;5082929;28;20073;-77
2023/12/28 06:38:38;;;;;;;34.38;15.48;;;1.70;99.90;;;;;;5100161;27;20055;-78
2023/12/28 06:41:12;;;;;;;41.40;16.75;;;1.70;99.90;;;;;;5081089;28;20048;-78
2023/12/28 06:43:41;;;;;;;39.83;17.92;;;1.80;99.90;;;;;;5102249;28;20052;-78
2023/12/28 06:46:09;;;;;;;42.53;18.05;;;2.10;99.90;;;;;;5102635;28;20070;-78
2023/12/28 06:48:40;;;;;;;45.08;19.75;;;2.00;99.90;;;;;;5080173;28;20265;-78
2023/12/28 06:51:08;;;;;;;42.97;16.95;;;1.70;99.90;;;;;;5080280;28;20059;-77
2023/12/28 06:53:39;;;;;;;43.22;18.25;;;1.70;99.90;;;;;;5081872;28;20130;-77
2023/12/28 06:56:08;;;;;;;43.88;17.50;;;1.70;99.90;;;;;;5097757;27;20197;-78
2023/12/28 06:58:36;;;;;;;48.00;20.48;;;1.70;99.90;;;;;;5090458;28;20044;-78
2023/12/28 07:01:05;;;;;;;44.38;18.55;;;1.70;99.90;;;;;;5097703;28;20516;-78
2023/12/28 07:03:34;;;;;;;54.00;21.38;;;1.70;99.90;;;;;;5093007;28;20043;-78
2023/12/28 07:06:04;;;;;;;53.80;20.25;;;2.60;99.90;;;;;;5094311;28;20051;-78
2023/12/28 07:08:33;;;;;;;49.50;20.40;;;1.60;99.90;;;;;;5078766;28;21965;-78
2023/12/28 07:11:05;;;;;;;42.45;19.75;;;1.70;99.90;;;;;;5095894;28;20047;-78
2023/12/28 07:13:34;;;;;;;45.92;19.13;;;1.90;99.90;;;;;;5110781;27;20098;-78
2023/12/28 07:16:02;;;;;;;46.95;18.92;;;1.80;99.90;;;;;;5092156;28;20073;-78
2023/12/28 07:18:31;;;;;;;49.97;20.23;;;1.80;99.90;;;;;;5092434;28;20051;-78
2023/12/28 07:21:00;;;;;;;44.22;20.38;;;1.80;99.90;;;;;;5104013;28;20035;-77
2023/12/28 07:23:29;;;;;;;52.78;21.92;;;1.90;99.90;;;;;;5104368;28;20661;-78
2023/12/28 07:25:58;;;;;;;47.80;19.83;;;1.90;99.90;;;;;;5097419;28;20055;-78
2023/12/28 07:28:28;;;;;;;43.70;19.17;;;2.00;99.90;;;;;;5093877;28;20058;-78
2023/12/28 07:30:57;;;;;;;49.55;20.75;;;2.00;99.90;;;;;;5092419;28;20055;-78
2023/12/28 07:33:26;;;;;;;49.92;22.10;;;2.60;99.90;;;;;;5096963;28;20067;-78
2023/12/28 07:35:55;;;;;;;68.97;28.08;;;2.10;99.90;;;;;;5095847;28;20055;-78
2023/12/28 07:38:23;;;;;;;83.47;34.70;;;2.10;99.90;;;;;;5084122;28;20072;-77
2023/12/28 07:40:52;;;;;;;74.93;33.03;;;2.20;99.90;;;;;;5102228;27;20935;-77
2023/12/28 07:43:21;;;;;;;129.45;44.15;;;2.20;99.90;;;;;;5091207;28;20072;-77
2023/12/28 07:45:51;;;;;;;121.50;42.88;;;2.30;99.90;;;;;;5101272;27;20410;-77
2023/12/28 07:48:19;;;;;;;100.05;36.22;;;2.30;99.90;;;;;;5088668;28;20051;-77
2023/12/28 07:50:49;;;;;;;90.68;33.75;;;2.40;99.90;;;;;;5087960;28;20078;-77
2023/12/28 07:53:17;;;;;;;85.13;33.13;;;2.40;99.90;;;;;;5089682;28;20100;-77
2023/12/28 07:55:45;;;;;;;90.25;35.65;;;2.50;99.90;;;;;;5092361;28;20055;-77
2023/12/28 07:58:14;;;;;;;73.72;31.75;;;2.50;99.90;;;;;;5088783;28;22569;-77
2023/12/28 08:00:42;;;;;;;72.60;30.55;;;2.50;99.90;;;;;;5091792;28;20068;-77
2023/12/28 08:03:15;;;;;;;66.13;31.25;;;2.60;99.90;;;;;;5087973;28;20059;-77
2023/12/28 08:05:44;;;;;;;61.92;25.85;;;2.60;99.90;;;;;;5085935;28;20068;-77
2023/12/28 08:08:12;;;;;;;61.30;26.05;;;2.60;99.90;;;;;;5092340;28;20059;-77
2023/12/28 08:10:41;;;;;;;58.30;25.55;;;2.70;99.90;;;;;;5107463;28;20915;-77
2023/12/28 08:13:10;;;;;;;55.25;26.63;;;2.80;99.90;;;;;;5096147;28;20798;-78
2023/12/28 08:15:40;;;;;;;49.90;24.05;;;2.80;99.90;;;;;;5112639;28;20054;-78
2023/12/28 08:18:10;;;;;;;47.28;21.77;;;2.80;99.90;;;;;;5112706;28;20044;-78
2023/12/28 08:20:40;;;;;;;54.03;23.63;;;2.90;99.90;;;;;;5114220;28;20043;-78
2023/12/28 08:23:11;;;;;;;52.25;22.63;;;3.00;99.90;;;;;;5095731;28;20040;-78
2023/12/28 08:25:48;;;;;;;57.75;23.60;;;3.00;99.90;;;;;;5122417;28;20055;-78
2023/12/28 08:28:21;;;;;;;55.67;22.27;;;1.60;99.90;;;;;;5115443;28;20070;-78
2023/12/28 08:30:51;;;;;;;58.83;23.35;;;3.20;99.90;;;;;;5113324;27;20078;-78
2023/12/28 08:33:21;;;;;;;50.90;22.30;;;3.30;99.90;;;;;;5104347;28;20056;-78
2023/12/28 08:35:53;;;;;;;48.95;19.95;;;3.30;99.90;;;;;;5122136;27;20073;-78
2023/12/28 08:41:19;;;;;;;41.22;19.50;;;3.40;99.90;;;;;;5125726;28;20069;-78
2023/12/28 08:43:48;;;;;;;40.10;16.73;;;3.50;99.90;;;;;;5128749;27;20054;-78
2023/12/28 08:46:18;;;;;;;33.03;15.50;;;2.30;99.90;;;;;;5111964;28;20073;-78
2023/12/28 08:48:49;;;;;;;36.53;15.73;;;3.60;99.90;;;;;;5119254;28;20087;-78
2023/12/28 08:51:24;;;;;;;33.75;13.82;;;3.60;99.90;;;;;;5116249;28;20059;-78
2023/12/28 08:54:09;;;;;;;28.75;13.82;;;3.90;99.90;;;;;;5068007;28;20112;-78
2023/12/28 08:56:41;;;;;;;35.85;14.35;;;3.80;99.90;;;;;;5057030;28;20053;-77
2023/12/28 08:59:11;;;;;;;30.90;15.13;;;3.80;99.90;;;;;;5056558;28;20124;-78
2023/12/28 09:01:41;;;;;;;29.40;13.93;;;3.90;99.90;;;;;;5063861;28;20046;-78
2023/12/28 09:04:14;;;;;;;28.13;13.15;;;4.50;99.90;;;;;;5075779;28;23044;-78
2023/12/28 09:06:49;;;;;;;27.65;10.45;;;4.10;99.90;;;;;;5074179;28;20071;-78
2023/12/28 09:09:19;;;;;;;28.20;12.43;;;4.50;99.90;;;;;;5077965;28;20069;-78
2023/12/28 09:11:48;;;;;;;30.02;13.90;;;4.20;99.90;;;;;;5070646;28;20056;-78
2023/12/28 09:14:19;;;;;;;30.23;13.80;;;4.20;99.90;;;;;;5075439;28;20056;-78
2023/12/28 09:16:48;;;;;;;30.55;14.57;;;4.30;99.90;;;;;;5048837;28;20048;-77
2023/12/28 09:19:17;;;;;;;27.90;11.88;;;4.70;99.90;;;;;;5068730;28;20058;-78
2023/12/28 09:21:46;;;;;;;28.10;12.82;;;4.70;99.90;;;;;;5065387;28;20044;-78
2023/12/28 09:24:18;;;;;;;27.55;12.98;;;4.80;99.90;;;;;;5080035;28;20044;-78
2023/12/28 09:26:48;;;;;;;32.28;14.68;;;4.70;99.90;;;;;;5104755;28;20053;-78
2023/12/28 09:29:17;;;;;;;29.25;14.35;;;4.70;99.90;;;;;;5092826;28;20283;-78
2023/12/28 09:31:47;;;;;;;27.98;13.20;;;4.60;99.90;;;;;;5106083;28;20043;-78
2023/12/28 09:34:17;;;;;;;35.15;14.10;;;5.10;99.90;;;;;;5095550;28;20058;-79
2023/12/28 09:36:46;;;;;;;28.65;13.48;;;4.90;99.90;;;;;;5120189;27;20622;-78
2023/12/28 09:39:16;;;;;;;27.95;13.15;;;5.00;99.90;;;;;;5095667;28;20055;-78
2023/12/28 09:41:56;;;;;;;26.42;12.95;;;5.10;99.90;;;;;;5090477;28;20036;-78
2023/12/28 09:44:26;;;;;;;32.75;14.48;;;5.10;99.90;;;;;;5102788;27;20020;-78
2023/12/28 09:46:57;;;;;;;28.10;15.27;;;5.10;99.90;;;;;;5106109;28;20020;-78
2023/12/28 09:49:29;;;;;;;43.05;16.98;;;5.20;99.90;;;;;;5093132;27;21993;-78
2023/12/28 09:51:58;;;;;;;30.85;14.55;;;5.10;99.90;;;;;;5094130;28;20071;-79
2023/12/28 09:54:28;;;;;;;32.38;15.07;;;5.50;99.90;;;;;;5099480;27;20150;-78
2023/12/28 09:56:57;;;;;;;30.95;14.40;;;5.60;99.90;;;;;;5092219;28;20046;-78
2023/12/28 09:59:28;;;;;;;37.47;14.80;;;5.50;99.90;;;;;;5092921;28;20146;-79
2023/12/28 10:01:57;;;;;;;26.85;13.00;;;5.60;99.90;;;;;;5121796;27;20036;-78
2023/12/28 10:04:25;;;;;;;26.60;13.77;;;5.60;99.90;;;;;;5104043;27;22050;-78
2023/12/28 10:06:55;;;;;;;31.70;15.13;;;5.70;99.90;;;;;;5090491;28;20036;-78
2023/12/28 10:09:26;;;;;;;30.75;13.13;;;5.80;99.90;;;;;;5089687;28;20063;-79
2023/12/28 10:11:57;;;;;;;33.70;15.13;;;5.90;99.90;;;;;;5090833;28;20051;-78
2023/12/28 10:14:26;;;;;;;33.50;14.48;;;5.90;99.90;;;;;;5110201;27;20047;-78
2023/12/28 10:16:55;;;;;;;31.15;14.07;;;6.00;99.90;;;;;;5095100;27;20042;-78
2023/12/28 10:19:24;;;;;;;25.55;13.80;;;6.00;99.90;;;;;;5102055;28;20036;-78
2023/12/28 10:21:52;;;;;;;29.85;13.82;;;6.30;99.90;;;;;;5106917;28;20127;-78
2023/12/28 10:24:21;;;;;;;22.98;10.55;;;6.10;99.90;;;;;;5096831;28;21806;-79
2023/12/28 10:26:50;;;;;;;23.17;12.07;;;6.30;99.90;;;;;;5098197;28;20040;-78
2023/12/28 10:29:20;;;;;;;25.17;13.00;;;6.20;99.90;;;;;;5112244;27;20116;-78
2023/12/28 10:31:51;;;;;;;27.88;13.02;;;6.30;99.90;;;;;;5108815;27;20035;-78
2023/12/28 10:34:22;;;;;;;26.23;12.00;;;6.60;99.90;;;;;;5095004;28;20032;-79
2023/12/28 10:36:55;;;;;;;23.25;11.68;;;6.50;99.90;;;;;;5091661;28;20042;-78
2023/12/28 10:39:26;;;;;;;23.20;12.85;;;6.60;99.90;;;;;;5107455;27;20063;-78
2023/12/28 10:41:58;;;;;;;28.45;12.27;;;6.60;99.90;;;;;;5113308;27;20112;-78
2023/12/28 10:44:32;;;;;;;26.58;11.65;;;6.60;99.90;;;;;;5093215;28;20640;-78
2023/12/28 11:10:55;;;;;;;25.30;12.07;;;7.10;99.90;;;;;;6156932;22;21277;-79
2023/12/28 11:13:24;;;;;;;25.23;11.35;;;7.00;99.90;;;;;;5010244;28;20058;-79
2023/12/28 11:15:53;;;;;;;24.25;11.55;;;7.10;99.90;;;;;;5017018;28;20539;-81
2023/12/28 11:18:23;;;;;;;22.38;10.90;;;7.20;99.90;;;;;;5019039;28;20081;-79
2023/12/28 11:20:53;;;;;;;20.90;11.30;;;7.20;99.90;;;;;;5003376;28;22537;-81
2023/12/28 11:23:22;;;;;;;25.17;11.65;;;7.30;99.90;;;;;;5002393;28;20073;-81
2023/12/28 11:25:50;;;;;;;21.98;10.95;;;7.30;99.90;;;;;;5005148;28;20505;-81
2023/12/28 11:28:20;;;;;;;24.60;11.35;;;7.30;99.90;;;;;;5005795;28;20504;-80
2023/12/28 11:30:48;;;;;;;20.27;11.18;;;7.40;99.90;;;;;;4993341;28;20108;-81
2023/12/28 11:33:18;;;;;;;23.10;11.88;;;7.40;99.90;;;;;;4998949;28;20048;-80
2023/12/28 11:35:48;;;;;;;24.10;11.77;;;7.40;99.90;;;;;;4993099;28;20164;-80
2023/12/28 11:38:18;;;;;;;24.42;11.88;;;7.40;99.90;;;;;;4990001;28;20049;-81
2023/12/28 11:40:47;;;;;;;20.92;11.80;;;7.40;99.90;;;;;;4993935;28;21398;-81
2023/12/28 11:43:18;;;;;;;23.65;11.77;;;7.50;99.90;;;;;;5002451;28;20724;-80
2023/12/28 11:45:55;;;;;;;22.55;11.48;;;7.50;99.90;;;;;;4996429;28;20156;-82
2023/12/28 11:48:25;;;;;;;24.83;11.30;;;7.50;99.90;;;;;;4981288;28;20053;-81
2023/12/28 11:50:59;;;;;;;19.98;10.40;;;7.60;99.90;;;;;;4993863;28;20097;-82
2023/12/28 11:53:28;;;;;;;19.95;10.13;;;7.60;99.90;;;;;;4993298;28;20054;-81
2023/12/28 11:56:02;;;;;;;19.70;10.38;;;7.70;99.90;;;;;;5006272;28;20045;-81
2023/12/28 11:58:32;;;;;;;16.13;8.07;;;7.60;99.90;;;;;;4990421;28;20061;-81
2023/12/28 12:01:02;;;;;;;18.98;8.65;;;7.60;99.90;;;;;;4987405;28;20170;-80
2023/12/28 12:03:31;;;;;;;21.60;9.73;;;7.60;99.90;;;;;;4994114;28;20166;-82
2023/12/28 12:06:00;;;;;;;21.95;9.40;;;7.60;99.90;;;;;;5005274;28;22500;-81
2023/12/28 12:08:30;;;;;;;16.90;9.25;;;7.60;99.90;;;;;;4996322;28;20050;-81
2023/12/28 12:11:03;;;;;;;19.45;9.10;;;7.60;99.90;;;;;;4996301;28;20095;-82
2023/12/28 12:13:32;;;;;;;19.55;8.77;;;7.60;99.90;;;;;;5010776;28;20089;-80
2023/12/28 12:16:05;;;;;;;20.00;9.68;;;7.60;99.90;;;;;;5008580;28;20606;-82
2023/12/28 12:18:35;;;;;;;15.55;9.13;;;7.60;99.90;;;;;;5025302;28;20530;-81
2023/12/28 12:21:06;;;;;;;19.20;10.00;;;7.60;99.90;;;;;;5020501;28;20048;-83
2023/12/28 12:23:35;;;;;;;16.83;9.32;;;7.50;99.90;;;;;;5023160;28;20040;-83
2023/12/28 12:26:06;;;;;;;20.23;9.20;;;7.60;99.90;;;;;;5012903;28;20047;-83
2023/12/28 12:28:35;;;;;;;16.85;9.65;;;7.60;99.90;;;;;;4999132;28;20064;-83
2023/12/28 12:31:06;;;;;;;19.13;9.82;;;7.60;99.90;;;;;;5001036;28;20045;-83
2023/12/28 12:33:35;;;;;;;18.50;9.55;;;7.60;99.90;;;;;;5013879;28;20064;-82
2023/12/28 12:36:05;;;;;;;16.88;9.55;;;7.50;99.90;;;;;;5022501;28;20504;-82
2023/12/28 12:38:34;;;;;;;20.65;10.43;;;7.60;99.90;;;;;;5023410;28;20053;-81
2023/12/28 12:41:02;;;;;;;21.35;10.27;;;7.70;99.90;;;;;;5015394;28;20059;-80
2023/12/28 12:43:31;;;;;;;19.40;10.55;;;7.70;99.90;;;;;;5015750;28;20132;-82
2023/12/28 12:46:00;;;;;;;25.40;12.45;;;7.60;99.90;;;;;;5015832;28;20063;-82
2023/12/28 12:48:30;;;;;;;28.38;13.43;;;7.50;99.90;;;;;;5019174;28;20070;-82
2023/12/28 12:50:58;;;;;;;20.90;11.30;;;7.40;99.90;;;;;;4998514;28;21133;-82
2023/12/28 12:53:26;;;;;;;24.35;11.15;;;7.40;99.90;;;;;;4997380;28;20056;-82
2023/12/28 12:55:56;;;;;;;25.63;11.23;;;7.50;99.90;;;;;;5014235;28;20142;-81
2023/12/28 12:58:25;;;;;;;24.25;10.57;;;7.50;99.90;;;;;;5027258;28;20063;-83
2023/12/28 13:00:53;;;;;;;22.13;10.05;;;7.70;99.90;;;;;;5014833;28;20049;-81
2023/12/28 13:03:22;;;;;;;22.35;11.68;;;7.60;99.90;;;;;;5013430;28;20053;-81
2023/12/28 13:05:56;;;;;;;19.70;10.55;;;7.70;99.90;;;;;;5036133;28;20529;-82
2023/12/28 13:08:25;;;;;;;18.35;9.77;;;7.60;99.90;;;;;;4998492;28;22629;-81
2023/12/28 13:10:53;;;;;;;20.25;10.40;;;7.60;99.90;;;;;;5013381;28;20932;-83
2023/12/28 13:13:22;;;;;;;20.65;9.77;;;7.60;99.90;;;;;;5013782;28;20143;-82
2023/12/28 13:15:50;;;;;;;22.02;9.82;;;7.60;99.90;;;;;;4996966;28;20411;-82
2023/12/28 13:18:19;;;;;;;22.60;10.75;;;7.50;99.90;;;;;;5016285;28;20044;-82